Time;durP1;ratioP1;P1;durP2;ratioP2;P2;SDS_P1;SDS_P2;PMS_P1;PMS_P2;Temp;Humidity;BMP_temperature;BMP_pressure;BME280_temperature;BME280_humidity;BME280_pressure;Samples;Min_cycle;Max_cycle;Signal;HPM_P1;HPM_P2
2022/08/10 00:02:01;;;;;;;18.95;11.00;;;;;;;;;;6253893;28;20048;-59
2022/08/10 00:05:03;;;;;;;13.05;7.88;;;;;;;;;;6255184;28;20071;-58
2022/08/10 00:08:04;;;;;;;13.68;7.85;;;;;;;;;;6254371;28;21188;-58
2022/08/10 00:11:04;;;;;;;20.47;8.70;;;;;;;;;;6254407;28;20583;-58
2022/08/10 00:14:05;;;;;;;13.15;7.35;;;;;;;;;;6254347;28;20037;-60
2022/08/10 00:17:05;;;;;;;13.05;7.72;;;;;;;;;;6257492;28;20044;-59
2022/08/10 00:20:07;;;;;;;13.60;7.88;;;;;;;;;;6255726;28;20052;-58
2022/08/10 00:23:08;;;;;;;12.15;7.78;;;;;;;;;;6251926;28;20465;-59
2022/08/10 00:26:08;;;;;;;11.15;6.78;;;;;;;;;;6255156;28;20114;-59
2022/08/10 00:29:09;;;;;;;12.93;7.27;;;;;;;;;;6254696;28;20469;-60
2022/08/10 00:32:10;;;;;;;11.20;7.68;;;;;;;;;;6253509;28;20045;-59
2022/08/10 00:35:10;;;;;;;14.10;7.15;;;;;;;;;;6254630;28;20776;-54
2022/08/10 00:38:11;;;;;;;14.68;7.35;;;;;;;;;;6257778;28;20045;-60
2022/08/10 00:41:11;;;;;;;13.02;7.50;;;;;;;;;;6254453;28;20875;-59
2022/08/10 00:44:12;;;;;;;10.93;6.88;;;;;;;;;;6253227;28;20052;-57
2022/08/10 00:47:13;;;;;;;12.43;7.05;;;;;;;;;;6256442;28;20060;-58
2022/08/10 00:50:16;;;;;;;11.50;7.18;;;;;;;;;;6255058;28;20049;-59
2022/08/10 00:53:17;;;;;;;13.23;7.03;;;;;;;;;;6253924;28;20049;-59
2022/08/10 00:56:18;;;;;;;12.88;7.32;;;;;;;;;;6254405;28;20940;-57
2022/08/10 00:59:18;;;;;;;14.35;7.82;;;;;;;;;;6253792;28;20071;-59
2022/08/10 01:02:19;;;;;;;13.43;6.97;;;;;;;;;;6253391;28;20046;-58
2022/08/10 01:05:21;;;;;;;13.18;7.53;;;;;;;;;;6255507;28;20474;-57
2022/08/10 01:08:28;;;;;;;10.73;7.35;;;;;;;;;;6253907;28;20053;-58
2022/08/10 01:11:42;;;;;;;12.07;7.28;;;;;;;;;;6252081;28;20499;-60
2022/08/10 01:14:48;;;;;;;16.33;8.02;;;;;;;;;;6252977;28;21033;-59
2022/08/10 01:18:15;;;;;;;15.65;8.00;;;;;;;;;;6256126;28;20053;-55
2022/08/10 01:21:19;;;;;;;10.93;7.38;;;;;;;;;;6246733;28;20045;-53
2022/08/10 01:24:40;;;;;;;11.93;7.25;;;;;;;;;;6252219;28;20491;-57
2022/08/10 01:28:02;;;;;;;12.30;7.53;;;;;;;;;;6245263;28;20148;-57
2022/08/10 01:31:04;;;;;;;11.77;7.05;;;;;;;;;;6253761;28;20191;-58
2022/08/10 01:34:12;;;;;;;12.55;7.10;;;;;;;;;;6251969;28;20056;-59
2022/08/10 01:37:15;;;;;;;13.00;7.55;;;;;;;;;;6250091;28;20150;-58
2022/08/10 01:40:21;;;;;;;13.50;7.47;;;;;;;;;;6251839;28;20110;-60
2022/08/10 01:43:24;;;;;;;11.82;6.97;;;;;;;;;;6251331;28;20147;-58
2022/08/10 01:46:26;;;;;;;14.05;7.32;;;;;;;;;;6254853;28;20132;-59
2022/08/10 01:49:29;;;;;;;13.73;7.30;;;;;;;;;;6254434;28;20055;-57
2022/08/10 01:52:32;;;;;;;13.85;7.00;;;;;;;;;;6251484;28;20049;-59
2022/08/10 01:55:33;;;;;;;11.75;7.30;;;;;;;;;;6251551;28;20055;-59
2022/08/10 01:58:37;;;;;;;14.23;7.45;;;;;;;;;;6251444;28;20495;-59
2022/08/10 02:01:44;;;;;;;15.10;7.50;;;;;;;;;;6255270;28;21225;-60
2022/08/10 02:04:47;;;;;;;13.82;8.07;;;;;;;;;;6254731;28;20109;-58
2022/08/10 02:07:49;;;;;;;11.73;6.78;;;;;;;;;;6254379;28;20601;-59
2022/08/10 02:10:52;;;;;;;12.95;7.20;;;;;;;;;;6253101;28;20132;-59
2022/08/10 02:13:55;;;;;;;12.50;7.03;;;;;;;;;;6249648;28;20056;-59
2022/08/10 02:16:57;;;;;;;11.63;6.88;;;;;;;;;;6251514;28;20347;-60
2022/08/10 02:20:02;;;;;;;11.52;7.00;;;;;;;;;;6250795;28;20098;-59
2022/08/10 02:23:21;;;;;;;12.48;7.28;;;;;;;;;;6250150;28;20053;-58
2022/08/10 02:26:22;;;;;;;11.60;7.20;;;;;;;;;;6251951;28;20056;-59
2022/08/10 02:29:24;;;;;;;11.30;7.60;;;;;;;;;;6252170;28;20161;-57
2022/08/10 02:32:25;;;;;;;12.50;8.00;;;;;;;;;;6252119;28;20495;-59
2022/08/10 02:35:27;;;;;;;12.45;7.35;;;;;;;;;;6255668;28;20076;-57
2022/08/10 02:38:39;;;;;;;14.98;8.52;;;;;;;;;;6254075;28;20485;-60
2022/08/10 02:41:41;;;;;;;10.95;7.68;;;;;;;;;;6258136;28;20883;-58
2022/08/10 02:44:55;;;;;;;16.40;8.43;;;;;;;;;;6256369;28;20057;-60
2022/08/10 02:48:10;;;;;;;15.27;8.85;;;;;;;;;;6252824;28;20506;-59
2022/08/10 02:51:18;;;;;;;11.88;7.65;;;;;;;;;;6251008;28;20067;-59
2022/08/10 02:54:22;;;;;;;13.35;8.30;;;;;;;;;;6249735;28;20491;-59
2022/08/10 02:57:32;;;;;;;14.32;8.40;;;;;;;;;;6249675;28;20114;-60
2022/08/10 03:00:38;;;;;;;15.77;8.40;;;;;;;;;;6249727;28;20103;-59
2022/08/10 03:03:51;;;;;;;15.32;8.32;;;;;;;;;;6251184;28;20521;-59
2022/08/10 03:07:03;;;;;;;14.10;8.77;;;;;;;;;;6248885;28;20110;-60
2022/08/10 03:10:07;;;;;;;13.57;8.15;;;;;;;;;;6249183;28;20061;-56
2022/08/10 03:13:09;;;;;;;15.38;9.02;;;;;;;;;;6247919;28;20145;-59
2022/08/10 03:16:11;;;;;;;14.05;8.38;;;;;;;;;;6250289;28;20053;-59
2022/08/10 03:19:13;;;;;;;15.15;8.68;;;;;;;;;;6249692;28;20131;-59
2022/08/10 03:22:15;;;;;;;17.05;8.73;;;;;;;;;;6247414;28;20483;-59
2022/08/10 03:25:18;;;;;;;13.52;8.02;;;;;;;;;;6250612;28;20048;-59
2022/08/10 03:28:21;;;;;;;15.63;9.18;;;;;;;;;;6250966;28;20045;-58
2022/08/10 03:31:22;;;;;;;11.68;8.20;;;;;;;;;;6254765;28;20512;-59
2022/08/10 03:34:25;;;;;;;14.00;8.30;;;;;;;;;;6253883;28;20057;-59
2022/08/10 03:37:28;;;;;;;13.30;9.05;;;;;;;;;;6254561;28;20049;-59
2022/08/10 03:40:34;;;;;;;13.75;8.32;;;;;;;;;;6253560;28;20048;-59
2022/08/10 03:43:35;;;;;;;12.85;7.85;;;;;;;;;;6256049;28;20068;-58
2022/08/10 03:46:40;;;;;;;12.60;8.05;;;;;;;;;;6252545;28;20201;-59
2022/08/10 03:49:42;;;;;;;17.40;9.15;;;;;;;;;;6256109;28;20052;-59
2022/08/10 03:52:44;;;;;;;14.25;9.10;;;;;;;;;;6253518;28;20059;-59
2022/08/10 03:55:45;;;;;;;15.23;9.63;;;;;;;;;;6254572;28;20045;-55
2022/08/10 03:58:45;;;;;;;16.27;9.82;;;;;;;;;;6256475;28;20084;-58
2022/08/10 04:01:48;;;;;;;15.38;9.48;;;;;;;;;;6253619;28;20048;-56
2022/08/10 04:04:49;;;;;;;15.50;9.38;;;;;;;;;;6256801;28;21036;-58
2022/08/10 04:07:50;;;;;;;13.52;8.93;;;;;;;;;;6255695;28;20053;-59
2022/08/10 04:10:51;;;;;;;16.92;10.20;;;;;;;;;;6259865;28;20680;-58
2022/08/10 04:13:51;;;;;;;19.98;11.07;;;;;;;;;;6269726;28;20083;-59
2022/08/10 04:16:52;;;;;;;16.25;9.90;;;;;;;;;;6282370;28;20045;-59
2022/08/10 04:19:54;;;;;;;19.98;10.57;;;;;;;;;;6277208;28;20041;-59
2022/08/10 04:22:58;;;;;;;23.55;13.68;;;;;;;;;;6285300;28;20474;-60
2022/08/10 04:25:59;;;;;;;21.70;13.35;;;;;;;;;;6279453;28;20067;-58
2022/08/10 04:28:59;;;;;;;47.05;31.02;;;;;;;;;;6285430;28;20182;-59
2022/08/10 04:32:02;;;;;;;19.85;13.02;;;;;;;;;;6266226;28;20044;-59
2022/08/10 04:35:05;;;;;;;14.70;9.02;;;;;;;;;;6265694;28;20353;-60
2022/08/10 04:38:07;;;;;;;14.18;8.65;;;;;;;;;;6269905;28;20101;-59
2022/08/10 04:41:08;;;;;;;14.40;9.27;;;;;;;;;;6264133;28;20037;-59
2022/08/10 04:44:08;;;;;;;17.90;10.95;;;;;;;;;;6267383;28;20068;-59
2022/08/10 04:47:09;;;;;;;20.85;12.90;;;;;;;;;;6265906;28;20084;-60
2022/08/10 04:50:10;;;;;;;20.48;10.10;;;;;;;;;;6266226;28;20059;-55
2022/08/10 04:53:11;;;;;;;17.53;9.80;;;;;;;;;;6264294;28;20052;-58
2022/08/10 04:56:11;;;;;;;15.30;10.02;;;;;;;;;;6262060;28;20425;-58
2022/08/10 04:59:12;;;;;;;18.83;9.57;;;;;;;;;;6262128;28;20053;-62
2022/08/10 05:02:14;;;;;;;24.88;14.13;;;;;;;;;;6263440;28;20046;-56
2022/08/10 05:05:14;;;;;;;20.92;12.23;;;;;;;;;;6265243;28;20487;-60
2022/08/10 05:08:15;;;;;;;14.68;9.60;;;;;;;;;;6268309;28;20151;-59
2022/08/10 05:11:16;;;;;;;15.77;8.50;;;;;;;;;;6264351;28;20052;-58
2022/08/10 05:14:16;;;;;;;13.32;8.70;;;;;;;;;;6267809;28;20048;-59
2022/08/10 05:17:18;;;;;;;14.75;8.40;;;;;;;;;;6265593;28;20049;-59
2022/08/10 05:20:19;;;;;;;16.83;9.43;;;;;;;;;;6270568;28;20128;-60
2022/08/10 05:23:20;;;;;;;26.17;11.60;;;;;;;;;;6256868;28;20079;-59
2022/08/10 05:26:20;;;;;;;25.70;13.75;;;;;;;;;;6269281;28;20483;-59
2022/08/10 05:29:21;;;;;;;29.50;16.58;;;;;;;;;;6267193;28;20309;-59
2022/08/10 05:32:21;;;;;;;26.77;14.43;;;;;;;;;;6265742;28;20063;-55
2022/08/10 05:35:22;;;;;;;26.63;13.13;;;;;;;;;;6269460;28;20068;-59
2022/08/10 05:38:25;;;;;;;21.95;10.73;;;;;;;;;;6276587;28;20082;-59
2022/08/10 05:41:27;;;;;;;21.95;10.93;;;;;;;;;;6283378;28;20461;-59
2022/08/10 05:44:27;;;;;;;;;;;;;;;;;;6281996;28;20083;-59
2022/08/10 05:47:28;;;;;;;23.48;12.82;;;;;;;;;;6284416;28;19921;-59
2022/08/10 05:50:33;;;;;;;23.37;12.33;;;;;;;;;;6279422;28;20056;-59
2022/08/10 05:53:37;;;;;;;22.10;12.48;;;;;;;;;;6280324;28;20045;-60
2022/08/10 05:56:38;;;;;;;22.85;12.90;;;;;;;;;;6282275;28;20559;-60
2022/08/10 05:59:45;;;;;;;24.50;15.53;;;;;;;;;;6283190;28;20147;-59
2022/08/10 06:02:53;;;;;;;23.80;15.30;;;;;;;;;;6283324;28;20049;-59
2022/08/10 06:05:55;;;;;;;26.63;17.10;;;;;;;;;;6282070;28;20135;-59
2022/08/10 06:08:58;;;;;;;29.77;17.63;;;;;;;;;;6282741;28;20060;-60
2022/08/10 06:12:00;;;;;;;28.17;17.75;;;;;;;;;;6288040;28;20504;-59
2022/08/10 06:15:01;;;;;;;;;;;;;;;;;;6284709;28;20045;-58
2022/08/10 06:18:03;;;;;;;27.38;17.60;;;;;;;;;;6284017;28;19989;-59
2022/08/10 06:21:04;;;;;;;28.52;16.42;;;;;;;;;;6267575;28;20057;-60
2022/08/10 06:24:09;;;;;;;20.80;11.63;;;;;;;;;;6256501;28;20045;-60
2022/08/10 06:27:10;;;;;;;22.63;11.88;;;;;;;;;;6267869;28;20044;-59
2022/08/10 06:30:12;;;;;;;20.75;12.00;;;;;;;;;;6264467;28;20053;-60
2022/08/10 06:33:13;;;;;;;17.63;10.68;;;;;;;;;;6262226;28;20048;-60
2022/08/10 06:36:15;;;;;;;19.83;12.20;;;;;;;;;;6258230;28;20388;-58
2022/08/10 06:39:16;;;;;;;14.85;10.23;;;;;;;;;;6259531;28;20207;-59
2022/08/10 06:42:25;;;;;;;13.95;8.88;;;;;;;;;;6263056;28;20049;-58
2022/08/10 06:45:36;;;;;;;16.10;9.40;;;;;;;;;;6258148;28;20172;-59
2022/08/10 06:48:45;;;;;;;20.63;8.43;;;;;;;;;;6261712;28;20722;-59
2022/08/10 06:51:49;;;;;;;14.38;8.10;;;;;;;;;;6258082;28;20079;-58
2022/08/10 06:54:54;;;;;;;11.18;7.47;;;;;;;;;;6274113;28;20132;-59
2022/08/10 06:57:56;;;;;;;13.90;7.63;;;;;;;;;;6279929;28;20532;-59
2022/08/10 07:01:01;;;;;;;12.43;6.55;;;;;;;;;;6275769;28;20131;-59
2022/08/10 07:04:07;;;;;;;9.25;6.40;;;;;;;;;;6283064;28;20048;-59
2022/08/10 07:07:12;;;;;;;12.20;7.50;;;;;;;;;;6283707;28;20056;-58
2022/08/10 07:10:17;;;;;;;11.85;6.85;;;;;;;;;;6281703;28;20131;-58
2022/08/10 07:13:19;;;;;;;12.52;6.05;;;;;;;;;;6286620;28;20499;-58
2022/08/10 07:16:20;;;;;;;12.05;6.38;;;;;;;;;;6287357;28;20079;-57
2022/08/10 07:19:23;;;;;;;9.53;5.63;;;;;;;;;;6285738;28;20147;-59
2022/08/10 07:22:27;;;;;;;12.73;6.57;;;;;;;;;;6281355;28;20049;-58
2022/08/10 07:25:29;;;;;;;8.18;5.55;;;;;;;;;;6281821;28;20156;-59
2022/08/10 07:28:32;;;;;;;10.23;4.80;;;;;;;;;;6287667;28;20048;-59
2022/08/10 07:31:36;;;;;;;10.07;4.60;;;;;;;;;;6285238;28;20044;-59
2022/08/10 07:34:38;;;;;;;7.72;4.22;;;;;;;;;;6287070;28;20067;-59
2022/08/10 07:37:40;;;;;;;7.50;4.32;;;;;;;;;;6276217;28;20040;-59
2022/08/10 07:40:42;;;;;;;10.10;4.45;;;;;;;;;;6276381;28;20075;-59
2022/08/10 07:43:46;;;;;;;9.10;4.45;;;;;;;;;;6284093;28;20135;-57
2022/08/10 07:46:51;;;;;;;8.75;4.45;;;;;;;;;;6283405;28;20503;-59
2022/08/10 07:50:00;;;;;;;8.80;4.43;;;;;;;;;;6280274;28;20040;-59
2022/08/10 07:53:03;;;;;;;6.47;4.15;;;;;;;;;;6279924;28;20506;-59
2022/08/10 07:56:05;;;;;;;7.13;3.58;;;;;;;;;;6282067;28;20139;-59
2022/08/10 07:59:09;;;;;;;10.05;4.07;;;;;;;;;;6287050;28;20472;-59
2022/08/10 08:02:48;;;;;;;8.75;4.40;;;;;;;;;;6286257;28;20459;-58
2022/08/10 08:05:50;;;;;;;6.82;4.25;;;;;;;;;;6189244;28;20070;-59
2022/08/10 08:08:51;;;;;;;6.85;4.10;;;;;;;;;;6188916;28;20054;-60
2022/08/10 08:11:53;;;;;;;10.43;5.10;;;;;;;;;;6258389;28;20047;-58
2022/08/10 08:14:56;;;;;;;7.72;4.60;;;;;;;;;;6263209;28;20151;-58
2022/08/10 08:18:00;;;;;;;9.55;4.75;;;;;;;;;;6264251;28;20049;-55
2022/08/10 08:21:02;;;;;;;8.55;4.78;;;;;;;;;;6261946;28;20479;-57
2022/08/10 08:24:03;;;;;;;8.73;4.55;;;;;;;;;;6264980;28;20049;-58
2022/08/10 08:27:04;;;;;;;;;;;;;;;;;;6259157;28;20075;-59
2022/08/10 08:30:07;;;;;;;7.30;4.10;;;;;;;;;;6259312;28;20551;-59
2022/08/10 08:33:10;;;;;;;7.82;4.35;;;;;;;;;;6262426;28;20724;-59
2022/08/10 08:36:13;;;;;;;7.90;4.18;;;;;;;;;;6259214;28;20128;-59
2022/08/10 08:39:15;;;;;;;7.00;3.55;;;;;;;;;;6263100;28;20929;-60
2022/08/10 08:42:42;;;;;;;7.10;3.47;;;;;;;;;;6264978;28;21109;-60
2022/08/10 08:46:27;;;;;;;8.27;4.35;;;;;;;;;;6268509;28;20124;-59
2022/08/10 08:49:36;;;;;;;7.43;4.00;;;;;;;;;;6262594;28;20084;-59
2022/08/10 08:53:01;;;;;;;7.88;4.35;;;;;;;;;;6259044;28;20058;-58
2022/08/10 08:56:12;;;;;;;10.35;4.53;;;;;;;;;;6265511;28;20140;-59
2022/08/10 08:59:22;;;;;;;;;;;;;;;;;;6271088;28;20052;-58
2022/08/10 09:02:42;;;;;;;8.00;4.60;;;;;;;;;;6283080;28;20013;-59
2022/08/10 09:06:14;;;;;;;9.95;5.10;;;;;;;;;;6283174;28;20135;-60
2022/08/10 09:09:30;;;;;;;11.45;4.75;;;;;;;;;;6261061;28;20048;-60
2022/08/10 09:12:43;;;;;;;8.75;4.78;;;;;;;;;;6256376;28;20095;-60
2022/08/10 09:16:21;;;;;;;10.18;5.00;;;;;;;;;;6260475;28;20087;-57
2022/08/10 09:19:46;;;;;;;10.45;5.13;;;;;;;;;;6263405;28;21228;-60
2022/08/10 09:23:15;;;;;;;10.95;5.18;;;;;;;;;;6260781;28;20136;-60
2022/08/10 09:26:24;;;;;;;14.10;6.88;;;;;;;;;;6280262;28;20078;-60
2022/08/10 09:29:38;;;;;;;21.10;10.27;;;;;;;;;;6262214;28;20404;-60
2022/08/10 09:32:52;;;;;;;16.42;6.45;;;;;;;;;;6259277;28;20164;-59
2022/08/10 09:36:06;;;;;;;9.23;4.32;;;;;;;;;;6280348;28;20122;-60
2022/08/10 09:39:43;;;;;;;8.15;4.70;;;;;;;;;;6274407;28;20045;-59
2022/08/10 09:43:08;;;;;;;7.13;4.07;;;;;;;;;;6278034;28;20044;-59
2022/08/10 09:46:42;;;;;;;9.18;4.85;;;;;;;;;;6278369;28;20049;-58
2022/08/10 09:50:06;;;;;;;10.93;4.50;;;;;;;;;;6236832;28;20495;-60
2022/08/10 09:53:26;;;;;;;9.38;4.38;;;;;;;;;;6246287;28;20442;-60
2022/08/10 09:56:48;;;;;;;6.15;4.03;;;;;;;;;;6247651;28;20546;-59
2022/08/10 10:00:11;;;;;;;9.75;4.00;;;;;;;;;;6253378;28;20071;-60
2022/08/10 10:03:18;;;;;;;6.85;3.75;;;;;;;;;;6256465;28;20523;-61
2022/08/10 10:06:35;;;;;;;6.57;4.22;;;;;;;;;;6253008;28;20403;-60
2022/08/10 10:09:47;;;;;;;6.97;4.10;;;;;;;;;;6254813;28;20442;-59
2022/08/10 10:12:54;;;;;;;9.38;3.95;;;;;;;;;;6261970;28;20494;-58
2022/08/10 10:16:36;;;;;;;9.57;4.70;;;;;;;;;;6252403;28;20065;-60
2022/08/10 10:19:53;;;;;;;8.45;4.03;;;;;;;;;;6211966;28;20059;-59
2022/08/10 10:23:06;;;;;;;8.80;4.72;;;;;;;;;;6235555;28;20157;-59
2022/08/10 10:26:18;;;;;;;6.13;3.70;;;;;;;;;;6235700;28;20041;-58
2022/08/10 10:29:28;;;;;;;10.77;4.72;;;;;;;;;;6225328;28;20444;-60
2022/08/10 10:32:37;;;;;;;9.10;4.40;;;;;;;;;;6235937;28;20136;-60
2022/08/10 10:35:51;;;;;;;10.07;3.80;;;;;;;;;;6233691;28;20577;-60
2022/08/10 10:38:56;;;;;;;12.73;4.25;;;;;;;;;;6250471;28;20456;-60
2022/08/10 10:42:35;;;;;;;6.82;3.47;;;;;;;;;;6238418;28;20587;-60
2022/08/10 10:45:57;;;;;;;11.00;5.50;;;;;;;;;;6237784;28;20041;-60
2022/08/10 10:49:20;;;;;;;8.57;4.00;;;;;;;;;;6258197;28;20056;-59
2022/08/10 10:52:24;;;;;;;8.57;3.70;;;;;;;;;;6259721;28;20092;-60
2022/08/10 10:55:36;;;;;;;5.35;3.55;;;;;;;;;;6260699;28;20434;-61
2022/08/10 10:59:02;;;;;;;7.13;3.75;;;;;;;;;;6260991;28;20930;-60
2022/08/10 11:02:21;;;;;;;7.53;4.03;;;;;;;;;;6270422;28;20472;-60
2022/08/10 11:05:32;;;;;;;8.27;4.10;;;;;;;;;;6261131;28;20061;-60
2022/08/10 11:08:42;;;;;;;10.02;6.20;;;;;;;;;;6260839;28;20044;-59
2022/08/10 11:11:47;;;;;;;8.05;4.40;;;;;;;;;;6266583;28;20036;-60
2022/08/10 11:14:56;;;;;;;8.52;4.35;;;;;;;;;;6282354;28;20408;-60
2022/08/10 11:18:32;;;;;;;5.53;3.15;;;;;;;;;;6282306;28;20211;-61
2022/08/10 11:21:48;;;;;;;10.70;4.10;;;;;;;;;;6273351;28;20057;-59
2022/08/10 11:25:08;;;;;;;7.05;3.42;;;;;;;;;;6270427;28;20266;-61
2022/08/10 11:28:26;;;;;;;7.03;3.50;;;;;;;;;;6258402;28;20053;-60
2022/08/10 11:31:34;;;;;;;6.32;3.38;;;;;;;;;;6260962;28;20048;-59
2022/08/10 11:35:04;;;;;;;5.20;3.08;;;;;;;;;;6257118;28;20045;-60
2022/08/10 11:38:14;;;;;;;5.55;3.00;;;;;;;;;;6262019;28;20060;-60
2022/08/10 11:41:31;;;;;;;6.40;3.17;;;;;;;;;;6257649;28;20044;-61
2022/08/10 11:44:50;;;;;;;6.95;3.10;;;;;;;;;;6259148;28;20819;-60
2022/08/10 11:47:53;;;;;;;7.28;3.60;;;;;;;;;;6258811;28;20080;-57
2022/08/10 11:50:58;;;;;;;5.80;3.38;;;;;;;;;;6262135;28;20135;-59
2022/08/10 11:54:07;;;;;;;4.95;3.38;;;;;;;;;;6266022;28;20109;-59
2022/08/10 11:57:10;;;;;;;6.18;3.20;;;;;;;;;;6274241;28;20547;-60
2022/08/10 12:00:12;;;;;;;9.25;3.50;;;;;;;;;;6265381;28;20041;-60
2022/08/10 12:03:12;;;;;;;6.80;3.45;;;;;;;;;;6263096;28;20637;-60
2022/08/10 12:06:16;;;;;;;5.57;3.37;;;;;;;;;;6261986;28;20041;-60
2022/08/10 12:09:18;;;;;;;8.38;3.40;;;;;;;;;;6265754;28;20054;-60
2022/08/10 12:12:20;;;;;;;6.75;3.72;;;;;;;;;;6278295;28;20048;-60
2022/08/10 12:15:42;;;;;;;5.75;3.20;;;;;;;;;;6274559;28;20070;-60
2022/08/10 12:18:52;;;;;;;13.65;3.85;;;;;;;;;;6257890;28;20045;-61
2022/08/10 12:22:03;;;;;;;5.85;3.10;;;;;;;;;;6263139;28;20062;-59
2022/08/10 12:25:08;;;;;;;4.57;3.00;;;;;;;;;;6261376;28;20055;-60
2022/08/10 12:28:46;;;;;;;6.50;3.28;;;;;;;;;;6259115;28;20029;-59
2022/08/10 12:32:04;;;;;;;4.95;2.50;;;;;;;;;;6250610;28;20052;-60
2022/08/10 12:35:14;;;;;;;6.60;3.20;;;;;;;;;;6263445;28;20056;-60
2022/08/10 12:38:25;;;;;;;5.03;2.80;;;;;;;;;;6261730;28;20408;-60
2022/08/10 12:41:49;;;;;;;6.13;2.78;;;;;;;;;;6262082;28;20047;-60
2022/08/10 12:45:00;;;;;;;4.15;3.00;;;;;;;;;;6274482;28;20052;-60
2022/08/10 12:48:29;;;;;;;5.38;2.70;;;;;;;;;;6282648;28;20076;-59
2022/08/10 12:51:32;;;;;;;7.60;3.65;;;;;;;;;;6282710;28;20582;-60
2022/08/10 12:54:35;;;;;;;5.22;3.05;;;;;;;;;;6280923;28;20071;-60
2022/08/10 12:57:38;;;;;;;8.80;3.47;;;;;;;;;;6281230;28;20111;-60
2022/08/10 13:00:42;;;;;;;4.88;3.22;;;;;;;;;;6283628;28;20044;-60
2022/08/10 13:03:46;;;;;;;5.00;3.08;;;;;;;;;;6269864;28;20041;-60
2022/08/10 13:06:48;;;;;;;5.10;3.10;;;;;;;;;;6258419;28;20754;-60
2022/08/10 13:09:49;;;;;;;6.20;3.10;;;;;;;;;;6258963;28;20056;-59
2022/08/10 13:12:53;;;;;;;5.10;3.10;;;;;;;;;;6266430;28;20479;-59
2022/08/10 13:15:56;;;;;;;4.80;3.05;;;;;;;;;;6258451;28;20075;-60
2022/08/10 13:18:59;;;;;;;4.70;2.60;;;;;;;;;;6259097;28;20701;-59
2022/08/10 13:22:02;;;;;;;4.90;2.50;;;;;;;;;;6261247;28;20071;-60
2022/08/10 13:25:05;;;;;;;5.28;2.30;;;;;;;;;;6260777;28;20136;-60
2022/08/10 13:28:12;;;;;;;6.05;2.50;;;;;;;;;;6261073;28;20052;-61
2022/08/10 13:31:19;;;;;;;5.07;2.70;;;;;;;;;;6258814;28;20181;-60
2022/08/10 13:34:24;;;;;;;5.78;2.55;;;;;;;;;;6260075;28;20161;-60
2022/08/10 13:37:29;;;;;;;5.07;2.90;;;;;;;;;;6253209;28;20059;-60
2022/08/10 13:40:31;;;;;;;7.35;3.08;;;;;;;;;;6260380;28;20044;-60
2022/08/10 13:43:33;;;;;;;5.97;2.75;;;;;;;;;;6259977;28;20090;-60
2022/08/10 13:46:38;;;;;;;;;;;;;;;;;;6262043;28;20048;-58
2022/08/10 13:49:49;;;;;;;4.72;2.70;;;;;;;;;;6260148;28;19920;-59
2022/08/10 13:52:53;;;;;;;4.47;2.70;;;;;;;;;;6255647;28;20084;-60
2022/08/10 13:55:56;;;;;;;8.32;2.90;;;;;;;;;;6262017;28;20656;-60
2022/08/10 13:58:57;;;;;;;5.03;2.38;;;;;;;;;;6262157;28;20136;-60
2022/08/10 14:01:59;;;;;;;;;;;;;;;;;;6261699;28;20044;-59
2022/08/10 14:05:01;;;;;;;4.80;2.42;;;;;;;;;;6264305;28;19924;-60
2022/08/10 14:08:04;;;;;;;4.40;2.38;;;;;;;;;;6262278;28;20052;-60
2022/08/10 14:11:11;;;;;;;6.10;2.58;;;;;;;;;;6260266;28;20048;-60
2022/08/10 14:14:20;;;;;;;4.32;2.28;;;;;;;;;;6259027;28;20351;-61
2022/08/10 14:17:23;;;;;;;4.95;2.75;;;;;;;;;;6266168;28;20404;-60
2022/08/10 14:20:37;;;;;;;5.25;2.70;;;;;;;;;;6267049;28;20135;-60
2022/08/10 14:23:43;;;;;;;4.80;2.67;;;;;;;;;;6277392;28;20044;-60
2022/08/10 14:26:46;;;;;;;5.45;2.58;;;;;;;;;;6282400;28;20128;-59
2022/08/10 14:29:53;;;;;;;4.95;3.05;;;;;;;;;;6282524;28;20044;-60
2022/08/10 14:32:56;;;;;;;5.70;3.53;;;;;;;;;;6286519;28;20132;-60
2022/08/10 14:35:58;;;;;;;5.45;3.40;;;;;;;;;;6282674;28;20055;-59
2022/08/10 14:39:01;;;;;;;5.88;3.60;;;;;;;;;;6284283;28;20475;-57
2022/08/10 14:42:06;;;;;;;7.80;3.90;;;;;;;;;;6286421;28;20050;-60
2022/08/10 14:45:27;;;;;;;7.13;3.90;;;;;;;;;;6282030;28;20045;-60
2022/08/10 14:48:32;;;;;;;4.32;2.55;;;;;;;;;;6279640;28;20060;-60
2022/08/10 14:51:33;;;;;;;4.20;2.83;;;;;;;;;;6277842;28;20047;-60
2022/08/10 14:54:34;;;;;;;5.13;2.95;;;;;;;;;;6274833;28;20073;-59
2022/08/10 14:57:40;;;;;;;5.70;2.88;;;;;;;;;;6282002;28;20135;-59
2022/08/10 15:00:41;;;;;;;5.47;3.10;;;;;;;;;;6271811;28;20131;-60
2022/08/10 15:03:47;;;;;;;6.38;2.55;;;;;;;;;;6250815;28;20552;-59
2022/08/10 15:06:53;;;;;;;4.35;2.67;;;;;;;;;;6254810;28;20053;-59
2022/08/10 15:09:55;;;;;;;5.07;2.80;;;;;;;;;;6253778;28;20049;-60
2022/08/10 15:12:56;;;;;;;6.50;2.47;;;;;;;;;;6255378;28;20049;-59
2022/08/10 15:15:59;;;;;;;4.78;2.83;;;;;;;;;;6256250;28;20049;-59
2022/08/10 15:19:01;;;;;;;4.88;2.40;;;;;;;;;;6253130;28;20041;-59
2022/08/10 15:22:05;;;;;;;4.80;2.55;;;;;;;;;;6254891;28;20792;-60
2022/08/10 15:25:08;;;;;;;3.47;2.15;;;;;;;;;;6256439;28;20053;-60
2022/08/10 15:28:11;;;;;;;3.97;2.10;;;;;;;;;;6258289;28;20460;-59
2022/08/10 15:31:16;;;;;;;5.25;2.33;;;;;;;;;;6260774;28;20060;-59
2022/08/10 15:37:37;;;;;;;3.78;2.10;;;;;;;;;;6259068;28;20090;-60
2022/08/10 15:40:46;;;;;;;7.45;2.45;;;;;;;;;;6258194;28;20495;-59
2022/08/10 15:43:46;;;;;;;5.18;2.40;;;;;;;;;;6259879;28;20053;-59
2022/08/10 15:46:56;;;;;;;4.88;2.40;;;;;;;;;;6259711;28;20061;-59
2022/08/10 15:50:10;;;;;;;4.25;2.40;;;;;;;;;;6262965;28;20079;-60
2022/08/10 15:53:36;;;;;;;3.92;2.33;;;;;;;;;;6260389;28;20045;-59
2022/08/10 15:56:51;;;;;;;4.63;2.60;;;;;;;;;;6264854;28;20498;-58
2022/08/10 15:59:59;;;;;;;3.97;2.22;;;;;;;;;;6265324;28;20156;-58
2022/08/10 16:03:15;;;;;;;4.70;2.03;;;;;;;;;;6259933;28;20049;-58
2022/08/10 16:06:28;;;;;;;4.57;2.13;;;;;;;;;;6261078;28;20053;-59
2022/08/10 16:09:32;;;;;;;3.72;1.95;;;;;;;;;;6261411;28;20060;-59
2022/08/10 16:12:56;;;;;;;4.65;2.28;;;;;;;;;;6261975;28;20127;-59
2022/08/10 16:16:00;;;;;;;4.78;2.05;;;;;;;;;;6265425;28;20582;-58
2022/08/10 16:19:04;;;;;;;3.30;2.00;;;;;;;;;;6264246;28;20148;-60
2022/08/10 16:22:08;;;;;;;11.27;2.53;;;;;;;;;;6259823;28;20423;-60
2022/08/10 16:25:12;;;;;;;6.22;2.03;;;;;;;;;;6261118;28;20049;-58
2022/08/10 16:28:14;;;;;;;3.83;1.92;;;;;;;;;;6257470;28;20697;-58
2022/08/10 16:31:23;;;;;;;4.00;2.15;;;;;;;;;;6258772;28;20049;-59
2022/08/10 16:34:27;;;;;;;5.93;2.13;;;;;;;;;;6255267;28;20049;-59
2022/08/10 16:37:33;;;;;;;5.07;2.63;;;;;;;;;;6256647;28;20057;-60
2022/08/10 16:40:34;;;;;;;3.67;1.75;;;;;;;;;;6259362;28;20049;-59
2022/08/10 16:43:36;;;;;;;4.40;2.05;;;;;;;;;;6256920;28;20055;-56
2022/08/10 16:46:42;;;;;;;4.65;2.00;;;;;;;;;;6258317;28;20420;-59
2022/08/10 16:49:44;;;;;;;4.78;1.92;;;;;;;;;;6257746;28;20940;-59
2022/08/10 16:52:49;;;;;;;4.50;1.88;;;;;;;;;;6255654;28;20064;-58
2022/08/10 16:55:53;;;;;;;5.20;2.00;;;;;;;;;;6257824;28;20052;-60
2022/08/10 16:58:56;;;;;;;5.30;2.00;;;;;;;;;;6256778;28;20048;-58
2022/08/10 17:01:59;;;;;;;4.93;2.00;;;;;;;;;;6257114;28;20098;-55
2022/08/10 17:05:02;;;;;;;3.50;2.03;;;;;;;;;;6256296;28;20053;-58
2022/08/10 17:08:07;;;;;;;6.03;2.40;;;;;;;;;;6257555;28;20136;-57
2022/08/10 17:11:08;;;;;;;4.65;2.85;;;;;;;;;;6258557;28;20084;-60
2022/08/10 17:14:11;;;;;;;4.28;2.42;;;;;;;;;;6266386;28;20045;-60
2022/08/10 17:17:18;;;;;;;5.20;1.98;;;;;;;;;;6260664;28;20053;-59
2022/08/10 17:20:24;;;;;;;7.03;2.30;;;;;;;;;;6267413;28;20060;-60
2022/08/10 17:23:30;;;;;;;4.63;2.38;;;;;;;;;;6257892;28;20469;-57
2022/08/10 17:26:34;;;;;;;8.90;2.10;;;;;;;;;;6262296;28;20067;-60
2022/08/10 17:29:39;;;;;;;4.13;1.67;;;;;;;;;;6261396;28;20068;-58
2022/08/10 17:32:56;;;;;;;4.65;2.10;;;;;;;;;;6257235;28;20129;-59
2022/08/10 17:36:01;;;;;;;7.57;2.17;;;;;;;;;;6260561;28;20083;-60
2022/08/10 17:39:04;;;;;;;4.80;1.90;;;;;;;;;;6263890;28;20830;-59
2022/08/10 17:42:05;;;;;;;4.60;2.20;;;;;;;;;;6260682;28;20051;-57
2022/08/10 17:45:12;;;;;;;;;;;;;;;;;;6259745;28;20049;-56
2022/08/10 17:48:13;;;;;;;4.03;2.00;;;;;;;;;;6259554;28;20485;-57
2022/08/10 17:51:14;;;;;;;;;;;;;;;;;;6261108;28;20049;-58
2022/08/10 17:54:39;;;;;;;4.93;1.80;;;;;;;;;;6261520;28;19928;-57
2022/08/10 17:57:40;;;;;;;5.47;2.33;;;;;;;;;;6260201;28;20149;-59
2022/08/10 18:00:44;;;;;;;7.25;2.75;;;;;;;;;;6261664;28;20052;-58
2022/08/10 18:03:53;;;;;;;4.00;2.25;;;;;;;;;;6262450;28;20056;-58
2022/08/10 18:06:56;;;;;;;4.30;2.33;;;;;;;;;;6270717;28;20407;-57
2022/08/10 18:09:59;;;;;;;5.40;2.38;;;;;;;;;;6266889;28;20078;-59
2022/08/10 18:13:03;;;;;;;6.05;3.47;;;;;;;;;;6260627;28;20049;-59
2022/08/10 18:16:04;;;;;;;7.60;4.00;;;;;;;;;;6264972;28;20057;-58
2022/08/10 18:19:07;;;;;;;4.75;3.08;;;;;;;;;;6264630;28;20127;-59
2022/08/10 18:22:10;;;;;;;7.38;3.47;;;;;;;;;;6267495;28;20084;-59
2022/08/10 18:25:19;;;;;;;4.90;2.70;;;;;;;;;;6261004;28;20089;-58
2022/08/10 18:28:21;;;;;;;4.18;2.30;;;;;;;;;;6261366;28;20138;-58
2022/08/10 18:31:24;;;;;;;4.45;2.13;;;;;;;;;;6257859;28;20106;-58
2022/08/10 18:34:27;;;;;;;4.30;2.10;;;;;;;;;;6260941;28;20045;-59
2022/08/10 18:37:28;;;;;;;6.53;2.25;;;;;;;;;;6258525;28;20052;-58